sensor_id;sensor_type;location;lat;lon;timestamp;P1;durP1;ratioP1;P2;durP2;ratioP2
59366;SDS011;45163;47.690;11.770;2023-02-08T00:02:20;15.73;;;8.80;;
59366;SDS011;45163;47.690;11.770;2023-02-08T00:04:46;16.33;;;9.00;;
59366;SDS011;45163;47.690;11.770;2023-02-08T00:07:12;14.33;;;8.80;;
59366;SDS011;45163;47.690;11.770;2023-02-08T00:09:38;14.50;;;8.40;;
59366;SDS011;45163;47.690;11.770;2023-02-08T00:12:04;16.40;;;9.07;;
59366;SDS011;45163;47.690;11.770;2023-02-08T00:14:30;13.90;;;8.33;;
59366;SDS011;45163;47.690;11.770;2023-02-08T00:16:56;18.40;;;9.17;;
59366;SDS011;45163;47.690;11.770;2023-02-08T00:19:22;14.03;;;8.20;;
59366;SDS011;45163;47.690;11.770;2023-02-08T00:21:48;17.23;;;8.77;;
59366;SDS011;45163;47.690;11.770;2023-02-08T00:24:14;14.07;;;8.00;;
59366;SDS011;45163;47.690;11.770;2023-02-08T00:26:39;12.97;;;7.80;;
59366;SDS011;45163;47.690;11.770;2023-02-08T00:29:05;14.57;;;8.27;;
59366;SDS011;45163;47.690;11.770;2023-02-08T00:31:31;12.83;;;7.57;;
59366;SDS011;45163;47.690;11.770;2023-02-08T00:33:57;13.33;;;7.57;;
59366;SDS011;45163;47.690;11.770;2023-02-08T00:36:23;13.03;;;8.27;;
59366;SDS011;45163;47.690;11.770;2023-02-08T00:38:49;11.37;;;7.37;;
59366;SDS011;45163;47.690;11.770;2023-02-08T00:41:15;12.03;;;7.47;;
59366;SDS011;45163;47.690;11.770;2023-02-08T00:43:41;11.97;;;7.80;;
59366;SDS011;45163;47.690;11.770;2023-02-08T00:46:07;12.53;;;7.57;;
59366;SDS011;45163;47.690;11.770;2023-02-08T00:48:34;13.13;;;7.20;;
59366;SDS011;45163;47.690;11.770;2023-02-08T00:51:03;12.80;;;7.67;;
59366;SDS011;45163;47.690;11.770;2023-02-08T00:53:36;14.67;;;7.60;;
59366;SDS011;45163;47.690;11.770;2023-02-08T00:56:03;13.83;;;7.63;;
59366;SDS011;45163;47.690;11.770;2023-02-08T00:58:29;22.30;;;6.90;;
59366;SDS011;45163;47.690;11.770;2023-02-08T01:00:55;13.50;;;7.57;;
59366;SDS011;45163;47.690;11.770;2023-02-08T01:03:22;11.53;;;7.23;;
59366;SDS011;45163;47.690;11.770;2023-02-08T01:05:48;12.43;;;6.97;;
59366;SDS011;45163;47.690;11.770;2023-02-08T01:08:15;11.17;;;7.40;;
59366;SDS011;45163;47.690;11.770;2023-02-08T01:10:41;12.00;;;6.40;;
59366;SDS011;45163;47.690;11.770;2023-02-08T01:13:07;15.10;;;7.90;;
59366;SDS011;45163;47.690;11.770;2023-02-08T01:15:34;12.00;;;7.07;;
59366;SDS011;45163;47.690;11.770;2023-02-08T01:18:00;15.53;;;8.00;;
59366;SDS011;45163;47.690;11.770;2023-02-08T01:20:26;15.93;;;7.90;;
59366;SDS011;45163;47.690;11.770;2023-02-08T01:22:53;11.40;;;7.10;;
59366;SDS011;45163;47.690;11.770;2023-02-08T01:25:19;12.50;;;7.43;;
59366;SDS011;45163;47.690;11.770;2023-02-08T01:27:45;12.63;;;8.03;;
59366;SDS011;45163;47.690;11.770;2023-02-08T01:30:11;15.47;;;7.67;;
59366;SDS011;45163;47.690;11.770;2023-02-08T01:32:38;11.80;;;6.60;;
59366;SDS011;45163;47.690;11.770;2023-02-08T01:35:04;16.97;;;7.03;;
59366;SDS011;45163;47.690;11.770;2023-02-08T01:37:30;12.43;;;6.70;;
59366;SDS011;45163;47.690;11.770;2023-02-08T01:39:56;11.53;;;6.90;;
59366;SDS011;45163;47.690;11.770;2023-02-08T01:42:22;12.43;;;7.53;;
59366;SDS011;45163;47.690;11.770;2023-02-08T01:47:49;11.80;;;6.83;;
59366;SDS011;45163;47.690;11.770;2023-02-08T01:50:20;12.40;;;7.50;;
59366;SDS011;45163;47.690;11.770;2023-02-08T01:52:49;11.83;;;6.47;;
59366;SDS011;45163;47.690;11.770;2023-02-08T01:55:24;10.27;;;6.50;;
59366;SDS011;45163;47.690;11.770;2023-02-08T01:57:55;10.10;;;6.40;;
59366;SDS011;45163;47.690;11.770;2023-02-08T02:00:24;12.80;;;7.07;;
59366;SDS011;45163;47.690;11.770;2023-02-08T02:02:51;11.60;;;6.33;;
59366;SDS011;45163;47.690;11.770;2023-02-08T02:05:20;11.10;;;6.50;;
59366;SDS011;45163;47.690;11.770;2023-02-08T02:07:48;12.23;;;6.73;;
59366;SDS011;45163;47.690;11.770;2023-02-08T02:10:23;11.47;;;6.80;;
59366;SDS011;45163;47.690;11.770;2023-02-08T02:12:52;13.73;;;6.67;;
59366;SDS011;45163;47.690;11.770;2023-02-08T02:15:21;13.17;;;7.07;;
59366;SDS011;45163;47.690;11.770;2023-02-08T02:17:47;10.87;;;6.60;;
59366;SDS011;45163;47.690;11.770;2023-02-08T02:34:01;13.43;;;6.40;;
59366;SDS011;45163;47.690;11.770;2023-02-08T02:47:37;9.87;;;5.83;;
59366;SDS011;45163;47.690;11.770;2023-02-08T02:50:13;12.37;;;6.63;;
59366;SDS011;45163;47.690;11.770;2023-02-08T02:53:27;13.23;;;6.40;;
59366;SDS011;45163;47.690;11.770;2023-02-08T02:55:46;9.93;;;6.03;;
59366;SDS011;45163;47.690;11.770;2023-02-08T02:58:16;11.20;;;6.70;;
59366;SDS011;45163;47.690;11.770;2023-02-08T03:00:50;13.33;;;6.60;;
59366;SDS011;45163;47.690;11.770;2023-02-08T03:03:18;12.63;;;6.60;;
59366;SDS011;45163;47.690;11.770;2023-02-08T03:05:48;15.20;;;6.40;;
59366;SDS011;45163;47.690;11.770;2023-02-08T03:20:00;12.00;;;6.33;;
59366;SDS011;45163;47.690;11.770;2023-02-08T03:25:36;12.00;;;6.13;;
59366;SDS011;45163;47.690;11.770;2023-02-08T03:28:21;10.87;;;6.30;;
59366;SDS011;45163;47.690;11.770;2023-02-08T03:30:58;11.70;;;6.63;;
59366;SDS011;45163;47.690;11.770;2023-02-08T03:36:05;8.73;;;5.27;;
59366;SDS011;45163;47.690;11.770;2023-02-08T03:38:39;8.20;;;5.50;;
59366;SDS011;45163;47.690;11.770;2023-02-08T03:41:09;14.47;;;6.40;;
59366;SDS011;45163;47.690;11.770;2023-02-08T03:43:42;14.87;;;6.87;;
59366;SDS011;45163;47.690;11.770;2023-02-08T03:46:13;9.63;;;5.80;;
59366;SDS011;45163;47.690;11.770;2023-02-08T03:48:54;17.00;;;6.13;;
59366;SDS011;45163;47.690;11.770;2023-02-08T03:51:25;18.17;;;6.63;;
59366;SDS011;45163;47.690;11.770;2023-02-08T03:53:54;11.37;;;6.60;;
59366;SDS011;45163;47.690;11.770;2023-02-08T03:56:27;12.53;;;6.80;;
59366;SDS011;45163;47.690;11.770;2023-02-08T03:59:02;9.90;;;5.47;;
59366;SDS011;45163;47.690;11.770;2023-02-08T04:01:32;10.33;;;5.50;;
59366;SDS011;45163;47.690;11.770;2023-02-08T04:04:05;10.50;;;5.73;;
59366;SDS011;45163;47.690;11.770;2023-02-08T04:06:31;10.13;;;5.83;;
59366;SDS011;45163;47.690;11.770;2023-02-08T04:08:57;12.30;;;5.83;;
59366;SDS011;45163;47.690;11.770;2023-02-08T04:11:23;10.90;;;5.93;;
59366;SDS011;45163;47.690;11.770;2023-02-08T04:13:49;10.17;;;6.43;;
59366;SDS011;45163;47.690;11.770;2023-02-08T04:16:15;10.67;;;6.20;;
59366;SDS011;45163;47.690;11.770;2023-02-08T04:18:41;9.53;;;5.60;;
59366;SDS011;45163;47.690;11.770;2023-02-08T04:21:07;9.17;;;5.50;;
59366;SDS011;45163;47.690;11.770;2023-02-08T04:23:33;15.40;;;6.47;;
59366;SDS011;45163;47.690;11.770;2023-02-08T04:25:59;8.90;;;5.47;;
59366;SDS011;45163;47.690;11.770;2023-02-08T04:28:25;9.63;;;5.37;;
59366;SDS011;45163;47.690;11.770;2023-02-08T04:30:53;11.83;;;5.53;;
59366;SDS011;45163;47.690;11.770;2023-02-08T04:33:20;10.70;;;5.93;;
59366;SDS011;45163;47.690;11.770;2023-02-08T04:35:45;19.13;;;5.63;;
59366;SDS011;45163;47.690;11.770;2023-02-08T04:38:11;11.27;;;5.20;;
59366;SDS011;45163;47.690;11.770;2023-02-08T04:40:37;8.57;;;5.07;;
59366;SDS011;45163;47.690;11.770;2023-02-08T04:43:03;8.43;;;4.90;;
59366;SDS011;45163;47.690;11.770;2023-02-08T04:45:29;9.17;;;5.23;;
59366;SDS011;45163;47.690;11.770;2023-02-08T04:47:57;8.30;;;5.00;;
59366;SDS011;45163;47.690;11.770;2023-02-08T04:50:25;11.23;;;6.30;;
59366;SDS011;45163;47.690;11.770;2023-02-08T04:52:51;14.30;;;7.00;;
59366;SDS011;45163;47.690;11.770;2023-02-08T04:55:17;13.07;;;6.50;;
59366;SDS011;45163;47.690;11.770;2023-02-08T04:57:43;15.37;;;6.70;;
59366;SDS011;45163;47.690;11.770;2023-02-08T05:00:09;13.40;;;6.23;;
59366;SDS011;45163;47.690;11.770;2023-02-08T05:02:35;14.20;;;6.67;;
59366;SDS011;45163;47.690;11.770;2023-02-08T05:05:01;10.83;;;5.70;;
59366;SDS011;45163;47.690;11.770;2023-02-08T05:07:27;13.53;;;6.07;;
59366;SDS011;45163;47.690;11.770;2023-02-08T05:09:53;9.43;;;5.77;;
59366;SDS011;45163;47.690;11.770;2023-02-08T05:12:19;11.43;;;6.27;;
59366;SDS011;45163;47.690;11.770;2023-02-08T05:14:45;9.10;;;5.03;;
59366;SDS011;45163;47.690;11.770;2023-02-08T05:17:11;17.07;;;5.87;;
59366;SDS011;45163;47.690;11.770;2023-02-08T05:19:37;9.20;;;5.37;;
59366;SDS011;45163;47.690;11.770;2023-02-08T05:22:03;9.00;;;5.07;;
59366;SDS011;45163;47.690;11.770;2023-02-08T05:24:29;11.87;;;5.17;;
59366;SDS011;45163;47.690;11.770;2023-02-08T05:26:55;11.80;;;6.17;;
59366;SDS011;45163;47.690;11.770;2023-02-08T05:29:21;9.53;;;5.37;;
59366;SDS011;45163;47.690;11.770;2023-02-08T05:31:47;10.43;;;5.60;;
59366;SDS011;45163;47.690;11.770;2023-02-08T05:34:13;10.70;;;5.67;;
59366;SDS011;45163;47.690;11.770;2023-02-08T05:36:39;11.80;;;5.57;;
59366;SDS011;45163;47.690;11.770;2023-02-08T05:39:05;9.87;;;4.93;;
59366;SDS011;45163;47.690;11.770;2023-02-08T05:41:31;10.77;;;5.03;;
59366;SDS011;45163;47.690;11.770;2023-02-08T05:43:57;10.17;;;5.47;;
59366;SDS011;45163;47.690;11.770;2023-02-08T05:46:23;10.83;;;5.40;;
59366;SDS011;45163;47.690;11.770;2023-02-08T05:48:49;16.57;;;5.60;;
59366;SDS011;45163;47.690;11.770;2023-02-08T05:51:15;10.93;;;5.17;;
59366;SDS011;45163;47.690;11.770;2023-02-08T05:53:41;9.30;;;5.40;;
59366;SDS011;45163;47.690;11.770;2023-02-08T05:56:08;7.47;;;4.83;;
59366;SDS011;45163;47.690;11.770;2023-02-08T05:58:34;13.50;;;4.77;;
59366;SDS011;45163;47.690;11.770;2023-02-08T06:01:00;8.00;;;4.70;;
59366;SDS011;45163;47.690;11.770;2023-02-08T06:03:26;8.13;;;4.97;;
59366;SDS011;45163;47.690;11.770;2023-02-08T06:05:53;10.13;;;5.00;;
59366;SDS011;45163;47.690;11.770;2023-02-08T06:08:18;8.40;;;4.97;;
59366;SDS011;45163;47.690;11.770;2023-02-08T06:10:46;13.87;;;5.40;;
59366;SDS011;45163;47.690;11.770;2023-02-08T06:13:13;9.80;;;4.77;;
59366;SDS011;45163;47.690;11.770;2023-02-08T06:15:40;9.23;;;5.30;;
59366;SDS011;45163;47.690;11.770;2023-02-08T06:18:06;9.57;;;5.00;;
59366;SDS011;45163;47.690;11.770;2023-02-08T06:20:33;11.00;;;5.70;;
59366;SDS011;45163;47.690;11.770;2023-02-08T06:22:59;7.93;;;4.97;;
59366;SDS011;45163;47.690;11.770;2023-02-08T06:25:26;7.23;;;4.87;;
59366;SDS011;45163;47.690;11.770;2023-02-08T06:27:52;9.60;;;5.23;;
59366;SDS011;45163;47.690;11.770;2023-02-08T06:30:18;12.23;;;6.27;;
59366;SDS011;45163;47.690;11.770;2023-02-08T06:32:44;14.17;;;5.87;;
59366;SDS011;45163;47.690;11.770;2023-02-08T06:35:10;12.80;;;5.50;;
59366;SDS011;45163;47.690;11.770;2023-02-08T06:37:36;11.83;;;6.10;;
59366;SDS011;45163;47.690;11.770;2023-02-08T06:40:02;13.80;;;5.83;;
59366;SDS011;45163;47.690;11.770;2023-02-08T06:42:29;8.47;;;4.63;;
59366;SDS011;45163;47.690;11.770;2023-02-08T06:44:55;8.83;;;4.80;;
59366;SDS011;45163;47.690;11.770;2023-02-08T06:47:23;10.87;;;4.47;;
59366;SDS011;45163;47.690;11.770;2023-02-08T06:49:50;9.83;;;5.20;;
59366;SDS011;45163;47.690;11.770;2023-02-08T06:52:16;10.83;;;5.87;;
59366;SDS011;45163;47.690;11.770;2023-02-08T06:54:42;8.40;;;5.33;;
59366;SDS011;45163;47.690;11.770;2023-02-08T06:57:08;11.50;;;5.87;;
59366;SDS011;45163;47.690;11.770;2023-02-08T06:59:40;12.53;;;6.27;;
59366;SDS011;45163;47.690;11.770;2023-02-08T07:02:11;23.43;;;7.77;;
59366;SDS011;45163;47.690;11.770;2023-02-08T07:04:38;13.50;;;7.00;;
59366;SDS011;45163;47.690;11.770;2023-02-08T07:07:04;15.70;;;7.47;;
59366;SDS011;45163;47.690;11.770;2023-02-08T07:09:31;19.53;;;7.60;;
59366;SDS011;45163;47.690;11.770;2023-02-08T07:11:58;18.30;;;9.50;;
59366;SDS011;45163;47.690;11.770;2023-02-08T07:14:37;10.90;;;6.20;;
59366;SDS011;45163;47.690;11.770;2023-02-08T07:17:05;14.37;;;7.73;;
59366;SDS011;45163;47.690;11.770;2023-02-08T07:19:31;16.33;;;8.60;;
59366;SDS011;45163;47.690;11.770;2023-02-08T07:21:57;18.00;;;9.50;;
59366;SDS011;45163;47.690;11.770;2023-02-08T07:24:29;18.47;;;9.47;;
59366;SDS011;45163;47.690;11.770;2023-02-08T07:26:55;16.53;;;8.70;;
59366;SDS011;45163;47.690;11.770;2023-02-08T07:29:21;20.00;;;9.00;;
59366;SDS011;45163;47.690;11.770;2023-02-08T07:31:47;25.53;;;8.50;;
59366;SDS011;45163;47.690;11.770;2023-02-08T07:34:13;22.50;;;10.23;;
59366;SDS011;45163;47.690;11.770;2023-02-08T07:36:41;12.13;;;6.83;;
59366;SDS011;45163;47.690;11.770;2023-02-08T07:39:07;11.20;;;6.33;;
59366;SDS011;45163;47.690;11.770;2023-02-08T07:41:33;11.60;;;6.00;;
59366;SDS011;45163;47.690;11.770;2023-02-08T07:43:59;13.23;;;6.40;;
59366;SDS011;45163;47.690;11.770;2023-02-08T07:46:25;11.00;;;6.00;;
59366;SDS011;45163;47.690;11.770;2023-02-08T07:48:51;12.60;;;6.23;;
59366;SDS011;45163;47.690;11.770;2023-02-08T07:51:17;19.67;;;8.73;;
59366;SDS011;45163;47.690;11.770;2023-02-08T07:53:43;27.93;;;13.43;;
59366;SDS011;45163;47.690;11.770;2023-02-08T07:56:09;12.43;;;7.80;;
59366;SDS011;45163;47.690;11.770;2023-02-08T07:58:36;12.77;;;5.60;;
59366;SDS011;45163;47.690;11.770;2023-02-08T08:01:02;10.53;;;5.33;;
59366;SDS011;45163;47.690;11.770;2023-02-08T08:03:28;8.30;;;5.07;;
59366;SDS011;45163;47.690;11.770;2023-02-08T08:05:54;13.60;;;5.43;;
59366;SDS011;45163;47.690;11.770;2023-02-08T08:08:20;9.13;;;4.80;;
59366;SDS011;45163;47.690;11.770;2023-02-08T08:10:46;6.37;;;4.37;;
59366;SDS011;45163;47.690;11.770;2023-02-08T08:13:12;11.03;;;4.73;;
59366;SDS011;45163;47.690;11.770;2023-02-08T08:15:38;8.93;;;5.10;;
59366;SDS011;45163;47.690;11.770;2023-02-08T08:18:05;6.60;;;4.60;;
59366;SDS011;45163;47.690;11.770;2023-02-08T08:20:31;6.23;;;4.27;;
59366;SDS011;45163;47.690;11.770;2023-02-08T08:22:59;5.70;;;4.13;;
59366;SDS011;45163;47.690;11.770;2023-02-08T08:25:25;10.97;;;4.90;;
59366;SDS011;45163;47.690;11.770;2023-02-08T08:27:51;7.57;;;4.90;;
59366;SDS011;45163;47.690;11.770;2023-02-08T08:30:18;10.83;;;4.97;;
59366;SDS011;45163;47.690;11.770;2023-02-08T08:32:45;5.67;;;4.40;;
59366;SDS011;45163;47.690;11.770;2023-02-08T08:35:11;9.70;;;3.70;;
59366;SDS011;45163;47.690;11.770;2023-02-08T08:37:37;7.53;;;4.50;;
59366;SDS011;45163;47.690;11.770;2023-02-08T08:40:03;7.87;;;4.60;;
59366;SDS011;45163;47.690;11.770;2023-02-08T08:42:31;11.00;;;6.60;;
59366;SDS011;45163;47.690;11.770;2023-02-08T08:44:58;13.60;;;5.60;;
59366;SDS011;45163;47.690;11.770;2023-02-08T08:47:24;12.83;;;5.53;;
59366;SDS011;45163;47.690;11.770;2023-02-08T08:49:50;8.97;;;5.33;;
59366;SDS011;45163;47.690;11.770;2023-02-08T08:52:16;9.23;;;5.70;;
59366;SDS011;45163;47.690;11.770;2023-02-08T08:54:42;8.70;;;5.60;;
59366;SDS011;45163;47.690;11.770;2023-02-08T08:57:08;8.33;;;5.43;;
59366;SDS011;45163;47.690;11.770;2023-02-08T08:59:34;9.43;;;5.57;;
59366;SDS011;45163;47.690;11.770;2023-02-08T09:02:00;9.27;;;5.90;;
59366;SDS011;45163;47.690;11.770;2023-02-08T09:04:26;14.70;;;6.57;;
59366;SDS011;45163;47.690;11.770;2023-02-08T09:06:53;8.97;;;6.00;;
59366;SDS011;45163;47.690;11.770;2023-02-08T09:09:19;9.40;;;5.57;;
59366;SDS011;45163;47.690;11.770;2023-02-08T09:11:47;7.73;;;4.90;;
59366;SDS011;45163;47.690;11.770;2023-02-08T09:14:13;7.23;;;5.10;;
59366;SDS011;45163;47.690;11.770;2023-02-08T09:16:40;8.50;;;6.10;;
59366;SDS011;45163;47.690;11.770;2023-02-08T09:19:07;15.63;;;6.47;;
59366;SDS011;45163;47.690;11.770;2023-02-08T09:21:35;11.80;;;5.80;;
59366;SDS011;45163;47.690;11.770;2023-02-08T09:24:01;10.17;;;5.57;;
59366;SDS011;45163;47.690;11.770;2023-02-08T09:26:28;20.93;;;6.70;;
59366;SDS011;45163;47.690;11.770;2023-02-08T09:28:54;8.37;;;5.53;;
59366;SDS011;45163;47.690;11.770;2023-02-08T09:31:22;9.20;;;5.87;;
59366;SDS011;45163;47.690;11.770;2023-02-08T09:33:51;10.57;;;6.20;;
59366;SDS011;45163;47.690;11.770;2023-02-08T09:36:18;10.87;;;5.83;;
59366;SDS011;45163;47.690;11.770;2023-02-08T09:38:46;7.97;;;5.60;;
59366;SDS011;45163;47.690;11.770;2023-02-08T09:46:23;9.27;;;5.70;;
59366;SDS011;45163;47.690;11.770;2023-02-08T09:48:53;6.73;;;5.20;;
59366;SDS011;45163;47.690;11.770;2023-02-08T09:51:32;10.70;;;5.03;;
59366;SDS011;45163;47.690;11.770;2023-02-08T09:56:47;9.27;;;6.07;;
59366;SDS011;45163;47.690;11.770;2023-02-08T10:01:53;7.83;;;6.00;;
59366;SDS011;45163;47.690;11.770;2023-02-08T10:05:24;9.37;;;6.70;;
59366;SDS011;45163;47.690;11.770;2023-02-08T10:07:25;10.77;;;6.87;;
59366;SDS011;45163;47.690;11.770;2023-02-08T10:09:53;8.53;;;6.67;;
59366;SDS011;45163;47.690;11.770;2023-02-08T10:23:21;10.67;;;7.30;;
59366;SDS011;45163;47.690;11.770;2023-02-08T10:26:18;9.60;;;7.87;;
59366;SDS011;45163;47.690;11.770;2023-02-08T10:29:08;10.17;;;7.57;;
59366;SDS011;45163;47.690;11.770;2023-02-08T10:37:48;11.30;;;7.40;;
59366;SDS011;45163;47.690;11.770;2023-02-08T10:39:56;13.67;;;8.00;;
59366;SDS011;45163;47.690;11.770;2023-02-08T10:42:37;9.47;;;7.13;;
59366;SDS011;45163;47.690;11.770;2023-02-08T10:47:53;8.93;;;7.33;;
59366;SDS011;45163;47.690;11.770;2023-02-08T10:53:09;9.33;;;7.30;;
59366;SDS011;45163;47.690;11.770;2023-02-08T10:55:40;8.73;;;7.03;;
59366;SDS011;45163;47.690;11.770;2023-02-08T10:58:10;15.33;;;7.57;;
59366;SDS011;45163;47.690;11.770;2023-02-08T11:00:41;11.63;;;8.27;;
59366;SDS011;45163;47.690;11.770;2023-02-08T11:03:22;11.43;;;7.47;;
59366;SDS011;45163;47.690;11.770;2023-02-08T11:05:50;11.30;;;7.40;;
59366;SDS011;45163;47.690;11.770;2023-02-08T11:08:21;10.00;;;7.50;;
59366;SDS011;45163;47.690;11.770;2023-02-08T11:10:56;15.10;;;7.80;;
59366;SDS011;45163;47.690;11.770;2023-02-08T11:16:06;9.07;;;7.87;;
59366;SDS011;45163;47.690;11.770;2023-02-08T11:18:37;14.20;;;8.30;;
59366;SDS011;45163;47.690;11.770;2023-02-08T11:21:20;12.50;;;7.37;;
59366;SDS011;45163;47.690;11.770;2023-02-08T11:23:48;8.90;;;7.70;;
59366;SDS011;45163;47.690;11.770;2023-02-08T11:28:42;10.63;;;7.43;;
59366;SDS011;45163;47.690;11.770;2023-02-08T11:31:16;9.87;;;7.37;;
59366;SDS011;45163;47.690;11.770;2023-02-08T11:34:01;8.60;;;7.50;;
59366;SDS011;45163;47.690;11.770;2023-02-08T11:36:32;12.20;;;7.60;;
59366;SDS011;45163;47.690;11.770;2023-02-08T11:39:00;9.10;;;7.07;;
59366;SDS011;45163;47.690;11.770;2023-02-08T11:41:29;8.83;;;7.33;;
59366;SDS011;45163;47.690;11.770;2023-02-08T11:44:00;9.77;;;7.07;;
59366;SDS011;45163;47.690;11.770;2023-02-08T11:46:28;8.60;;;7.10;;
59366;SDS011;45163;47.690;11.770;2023-02-08T11:48:58;10.27;;;7.30;;
59366;SDS011;45163;47.690;11.770;2023-02-08T11:54:01;10.17;;;7.27;;
59366;SDS011;45163;47.690;11.770;2023-02-08T11:56:30;8.10;;;7.07;;
59366;SDS011;45163;47.690;11.770;2023-02-08T12:01:40;8.73;;;6.57;;
59366;SDS011;45163;47.690;11.770;2023-02-08T12:04:09;9.93;;;6.83;;
59366;SDS011;45163;47.690;11.770;2023-02-08T12:06:44;12.90;;;7.30;;
59366;SDS011;45163;47.690;11.770;2023-02-08T12:12:35;7.20;;;6.07;;
59366;SDS011;45163;47.690;11.770;2023-02-08T12:21:13;9.70;;;7.20;;
59366;SDS011;45163;47.690;11.770;2023-02-08T12:23:54;7.93;;;7.10;;
59366;SDS011;45163;47.690;11.770;2023-02-08T12:26:46;8.27;;;7.07;;
59366;SDS011;45163;47.690;11.770;2023-02-08T12:32:26;9.27;;;7.40;;
59366;SDS011;45163;47.690;11.770;2023-02-08T12:35:24;9.70;;;7.17;;
59366;SDS011;45163;47.690;11.770;2023-02-08T12:44:01;9.53;;;6.70;;
59366;SDS011;45163;47.690;11.770;2023-02-08T12:54:45;9.57;;;7.47;;
59366;SDS011;45163;47.690;11.770;2023-02-08T12:57:22;10.70;;;7.90;;
59366;SDS011;45163;47.690;11.770;2023-02-08T13:00:04;11.57;;;6.93;;
59366;SDS011;45163;47.690;11.770;2023-02-08T13:05:30;11.20;;;7.60;;
59366;SDS011;45163;47.690;11.770;2023-02-08T13:10:59;10.30;;;7.70;;
59366;SDS011;45163;47.690;11.770;2023-02-08T13:13:29;10.37;;;7.40;;
59366;SDS011;45163;47.690;11.770;2023-02-08T13:16:06;11.40;;;7.57;;
59366;SDS011;45163;47.690;11.770;2023-02-08T13:18:49;10.03;;;7.20;;
59366;SDS011;45163;47.690;11.770;2023-02-08T13:21:23;11.17;;;6.90;;
59366;SDS011;45163;47.690;11.770;2023-02-08T13:23:53;8.63;;;7.07;;
59366;SDS011;45163;47.690;11.770;2023-02-08T13:26:21;13.87;;;8.17;;
59366;SDS011;45163;47.690;11.770;2023-02-08T13:28:53;12.47;;;7.83;;
59366;SDS011;45163;47.690;11.770;2023-02-08T13:33:54;10.53;;;7.57;;
59366;SDS011;45163;47.690;11.770;2023-02-08T13:36:33;9.67;;;7.30;;
59366;SDS011;45163;47.690;11.770;2023-02-08T13:39:02;8.07;;;7.10;;
59366;SDS011;45163;47.690;11.770;2023-02-08T13:41:31;7.73;;;6.93;;
59366;SDS011;45163;47.690;11.770;2023-02-08T13:44:06;11.93;;;7.23;;
59366;SDS011;45163;47.690;11.770;2023-02-08T13:46:45;8.73;;;7.13;;
59366;SDS011;45163;47.690;11.770;2023-02-08T13:52:06;11.10;;;7.23;;
59366;SDS011;45163;47.690;11.770;2023-02-08T13:54:37;11.83;;;7.80;;
59366;SDS011;45163;47.690;11.770;2023-02-08T13:57:26;10.50;;;7.67;;
59366;SDS011;45163;47.690;11.770;2023-02-08T14:05:47;12.37;;;7.77;;
59366;SDS011;45163;47.690;11.770;2023-02-08T14:11:11;11.20;;;8.50;;
59366;SDS011;45163;47.690;11.770;2023-02-08T14:13:45;10.83;;;8.10;;
59366;SDS011;45163;47.690;11.770;2023-02-08T14:24:21;10.83;;;8.13;;
59366;SDS011;45163;47.690;11.770;2023-02-08T14:26:49;11.93;;;8.63;;
59366;SDS011;45163;47.690;11.770;2023-02-08T14:29:23;13.17;;;8.47;;
59366;SDS011;45163;47.690;11.770;2023-02-08T14:31:55;11.23;;;8.17;;
59366;SDS011;45163;47.690;11.770;2023-02-08T14:34:31;14.33;;;8.90;;
59366;SDS011;45163;47.690;11.770;2023-02-08T14:39:33;13.00;;;8.97;;
59366;SDS011;45163;47.690;11.770;2023-02-08T14:47:12;14.73;;;9.77;;
59366;SDS011;45163;47.690;11.770;2023-02-08T14:50:05;16.27;;;10.17;;
59366;SDS011;45163;47.690;11.770;2023-02-08T14:52:41;17.10;;;10.07;;
59366;SDS011;45163;47.690;11.770;2023-02-08T14:55:18;14.43;;;9.73;;
59366;SDS011;45163;47.690;11.770;2023-02-08T14:57:53;18.60;;;10.43;;
59366;SDS011;45163;47.690;11.770;2023-02-08T15:00:24;18.47;;;10.83;;
59366;SDS011;45163;47.690;11.770;2023-02-08T15:02:54;19.33;;;10.77;;
59366;SDS011;45163;47.690;11.770;2023-02-08T15:05:22;17.03;;;10.53;;
59366;SDS011;45163;47.690;11.770;2023-02-08T15:07:54;21.17;;;10.90;;
59366;SDS011;45163;47.690;11.770;2023-02-08T15:10:23;20.33;;;10.97;;
59366;SDS011;45163;47.690;11.770;2023-02-08T15:12:52;19.40;;;11.00;;
59366;SDS011;45163;47.690;11.770;2023-02-08T15:17:52;17.17;;;10.80;;
59366;SDS011;45163;47.690;11.770;2023-02-08T15:20:30;20.27;;;11.37;;
59366;SDS011;45163;47.690;11.770;2023-02-08T15:25:28;20.97;;;11.10;;
59366;SDS011;45163;47.690;11.770;2023-02-08T15:27:57;17.23;;;11.23;;
59366;SDS011;45163;47.690;11.770;2023-02-08T15:30:34;19.17;;;12.13;;
59366;SDS011;45163;47.690;11.770;2023-02-08T15:33:02;19.80;;;11.07;;
59366;SDS011;45163;47.690;11.770;2023-02-08T15:35:34;20.17;;;12.17;;
59366;SDS011;45163;47.690;11.770;2023-02-08T15:38:01;21.00;;;12.13;;
59366;SDS011;45163;47.690;11.770;2023-02-08T15:40:32;23.90;;;13.07;;
59366;SDS011;45163;47.690;11.770;2023-02-08T15:43:18;23.40;;;12.93;;
59366;SDS011;45163;47.690;11.770;2023-02-08T15:45:54;26.17;;;12.40;;
59366;SDS011;45163;47.690;11.770;2023-02-08T15:48:22;22.63;;;12.43;;
59366;SDS011;45163;47.690;11.770;2023-02-08T15:50:49;24.77;;;12.23;;
59366;SDS011;45163;47.690;11.770;2023-02-08T15:53:16;23.73;;;13.23;;
59366;SDS011;45163;47.690;11.770;2023-02-08T15:55:45;30.17;;;14.17;;
59366;SDS011;45163;47.690;11.770;2023-02-08T15:58:27;20.70;;;12.27;;
59366;SDS011;45163;47.690;11.770;2023-02-08T16:00:55;23.20;;;13.23;;
59366;SDS011;45163;47.690;11.770;2023-02-08T16:03:23;22.83;;;13.03;;
59366;SDS011;45163;47.690;11.770;2023-02-08T16:05:56;23.23;;;13.17;;
59366;SDS011;45163;47.690;11.770;2023-02-08T16:08:29;21.40;;;12.40;;
59366;SDS011;45163;47.690;11.770;2023-02-08T16:13:37;23.77;;;13.00;;
59366;SDS011;45163;47.690;11.770;2023-02-08T16:18:43;23.77;;;12.40;;
59366;SDS011;45163;47.690;11.770;2023-02-08T16:21:18;28.97;;;14.07;;
59366;SDS011;45163;47.690;11.770;2023-02-08T16:26:39;22.17;;;14.00;;
59366;SDS011;45163;47.690;11.770;2023-02-08T16:29:14;24.57;;;14.80;;
59366;SDS011;45163;47.690;11.770;2023-02-08T16:31:44;24.27;;;13.27;;
59366;SDS011;45163;47.690;11.770;2023-02-08T16:34:15;23.23;;;13.13;;
59366;SDS011;45163;47.690;11.770;2023-02-08T16:36:44;24.43;;;12.97;;
59366;SDS011;45163;47.690;11.770;2023-02-08T16:44:31;22.13;;;13.37;;
59366;SDS011;45163;47.690;11.770;2023-02-08T16:47:00;28.00;;;13.30;;
59366;SDS011;45163;47.690;11.770;2023-02-08T16:49:26;26.87;;;14.50;;
59366;SDS011;45163;47.690;11.770;2023-02-08T16:51:56;22.97;;;13.43;;
59366;SDS011;45163;47.690;11.770;2023-02-08T16:54:22;24.50;;;12.83;;
59366;SDS011;45163;47.690;11.770;2023-02-08T16:56:49;24.37;;;13.57;;
59366;SDS011;45163;47.690;11.770;2023-02-08T16:59:20;28.43;;;13.63;;
59366;SDS011;45163;47.690;11.770;2023-02-08T17:01:46;30.67;;;12.20;;
59366;SDS011;45163;47.690;11.770;2023-02-08T17:04:14;29.10;;;14.23;;
59366;SDS011;45163;47.690;11.770;2023-02-08T17:06:41;25.43;;;14.07;;
59366;SDS011;45163;47.690;11.770;2023-02-08T17:09:10;24.77;;;13.93;;
59366;SDS011;45163;47.690;11.770;2023-02-08T17:11:38;38.13;;;16.23;;
59366;SDS011;45163;47.690;11.770;2023-02-08T17:14:04;28.20;;;14.73;;
59366;SDS011;45163;47.690;11.770;2023-02-08T17:16:31;30.63;;;14.07;;
59366;SDS011;45163;47.690;11.770;2023-02-08T17:18:59;30.90;;;15.80;;
59366;SDS011;45163;47.690;11.770;2023-02-08T17:21:28;32.63;;;15.43;;
59366;SDS011;45163;47.690;11.770;2023-02-08T17:23:56;34.07;;;14.50;;
59366;SDS011;45163;47.690;11.770;2023-02-08T17:26:26;27.97;;;14.50;;